Time;durP1;ratioP1;P1;durP2;ratioP2;P2;SDS_P1;SDS_P2;PMS_P1;PMS_P2;Temp;Humidity;BMP_temperature;BMP_pressure;BME280_temperature;BME280_humidity;BME280_pressure;Samples;Min_cycle;Max_cycle;Signal;HPM_P1;HPM_P2
2021/04/20 00:02:26;;;;;;;1.47;1.20;;;25.20;75.90;;;;;;4980183;28;20211;-91
2021/04/20 00:04:57;;;;;;;5.10;1.37;;;25.00;75.20;;;;;;4979046;28;20290;-91
2021/04/20 00:07:29;;;;;;;2.87;1.03;;;25.00;73.80;;;;;;4978659;28;20624;-91
2021/04/20 00:09:59;;;;;;;6.37;1.10;;;25.20;75.80;;;;;;4979107;28;20246;-91
2021/04/20 00:12:32;;;;;;;4.63;1.27;;;25.00;73.60;;;;;;4978847;28;20210;-91
2021/04/20 00:15:02;;;;;;;6.03;1.33;;;25.00;73.70;;;;;;4978511;28;20235;-92
2021/04/20 00:17:33;;;;;;;4.97;1.20;;;25.10;76.30;;;;;;4981459;28;20222;-91
2021/04/20 00:20:03;;;;;;;8.63;1.50;;;25.00;74.90;;;;;;4978361;28;20203;-91
2021/04/20 00:22:34;;;;;;;4.80;1.40;;;25.20;75.70;;;;;;4979093;28;20264;-91
2021/04/20 00:25:06;;;;;;;2.67;1.27;;;25.20;74.70;;;;;;4979838;28;20683;-91
2021/04/20 00:27:39;;;;;;;3.60;1.10;;;24.70;74.30;;;;;;4974203;28;20290;-91
2021/04/20 00:30:11;;;;;;;2.83;1.30;;;24.90;72.60;;;;;;4962991;28;20208;-91
2021/04/20 00:32:43;;;;;;;3.47;1.37;;;24.90;76.70;;;;;;4959459;28;20657;-91
2021/04/20 00:35:13;;;;;;;3.43;1.30;;;25.10;74.90;;;;;;4961839;28;20290;-91
2021/04/20 00:37:43;;;;;;;4.87;1.10;;;25.20;75.80;;;;;;4959240;29;20212;-90
2021/04/20 00:40:15;;;;;;;4.57;1.27;;;25.20;72.90;;;;;;4963685;28;20215;-91
2021/04/20 00:42:53;;;;;;;2.93;1.20;;;25.10;74.20;;;;;;4969183;28;20671;-90
2021/04/20 00:45:26;;;;;;;3.53;1.30;;;25.00;73.80;;;;;;4960600;28;20211;-90
2021/04/20 00:47:56;;;;;;;3.93;1.30;;;25.00;72.70;;;;;;4976464;28;20306;-90
2021/04/20 00:50:28;;;;;;;7.50;1.70;;;24.50;73.50;;;;;;4980660;28;20230;-90
2021/04/20 00:52:59;;;;;;;6.50;1.30;;;24.40;74.30;;;;;;4982655;28;20203;-89
2021/04/20 00:55:29;;;;;;;3.13;1.33;;;24.50;73.70;;;;;;4980913;28;20266;-90
2021/04/20 00:58:01;;;;;;;7.10;1.60;;;24.50;75.40;;;;;;4978968;28;20640;-90
2021/04/20 01:00:32;;;;;;;5.67;1.57;;;24.50;72.90;;;;;;4957028;29;20657;-90
2021/04/20 01:03:02;;;;;;;4.13;1.30;;;24.50;74.30;;;;;;4956711;28;20275;-90
2021/04/20 01:05:35;;;;;;;7.30;1.73;;;24.80;74.10;;;;;;4959250;28;20242;-91
2021/04/20 01:08:08;;;;;;;3.90;1.73;;;25.00;73.60;;;;;;4960512;28;20215;-90
2021/04/20 01:10:41;;;;;;;5.60;1.87;;;25.40;74.10;;;;;;4962630;28;20234;-91
2021/04/20 01:13:13;;;;;;;8.13;1.90;;;25.60;74.10;;;;;;4959367;28;20728;-91
2021/04/20 01:15:45;;;;;;;8.87;2.00;;;25.30;75.10;;;;;;4963562;28;20220;-91
2021/04/20 01:18:17;;;;;;;4.93;1.50;;;25.40;74.90;;;;;;4958109;28;20262;-91
2021/04/20 01:20:50;;;;;;;6.43;1.60;;;25.30;75.90;;;;;;4962699;28;20199;-92
2021/04/20 01:23:27;;;;;;;3.90;1.57;;;25.60;75.20;;;;;;4978952;28;20234;-91
2021/04/20 01:26:00;;;;;;;6.27;1.57;;;25.40;72.80;;;;;;4983465;28;20269;-90
2021/04/20 01:28:32;;;;;;;5.77;1.47;;;25.20;75.00;;;;;;4986014;28;20222;-91
2021/04/20 01:31:02;;;;;;;5.07;1.70;;;25.40;75.10;;;;;;4987813;28;20214;-91
2021/04/20 01:33:32;;;;;;;4.97;1.70;;;25.20;75.70;;;;;;4988016;28;20712;-91
2021/04/20 01:36:03;;;;;;;4.97;1.70;;;24.40;74.30;;;;;;4999959;28;20225;-92
2021/04/20 01:38:33;;;;;;;4.83;1.13;;;24.00;74.80;;;;;;4999726;28;20210;-92
2021/04/20 01:41:04;;;;;;;14.70;8.33;;;23.30;74.80;;;;;;4999000;28;20277;-92
2021/04/20 01:43:36;;;;;;;13.20;3.30;;;22.80;77.50;;;;;;4998188;28;20214;-91
2021/04/20 01:46:07;;;;;;;6.90;2.10;;;22.60;78.00;;;;;;4999337;28;20222;-92
2021/04/20 01:48:38;;;;;;;7.20;5.17;;;22.50;77.40;;;;;;5001556;28;20202;-92
2021/04/20 01:51:10;;;;;;;7.87;2.27;;;22.30;79.50;;;;;;4997001;28;20234;-92
2021/04/20 01:53:40;;;;;;;7.73;1.83;;;22.10;79.30;;;;;;4978072;28;20636;-92
2021/04/20 01:56:13;;;;;;;6.60;2.00;;;21.90;79.40;;;;;;4977161;28;20261;-92
2021/04/20 01:58:45;;;;;;;3.63;1.80;;;21.80;80.00;;;;;;4976821;28;20234;-92
2021/04/20 02:01:18;;;;;;;6.77;1.87;;;21.50;80.70;;;;;;4975923;28;20214;-91
2021/04/20 02:03:50;;;;;;;7.57;1.70;;;21.40;79.80;;;;;;4976616;28;20314;-92
2021/04/20 02:06:22;;;;;;;4.83;1.63;;;21.40;82.40;;;;;;4976359;28;20254;-91
2021/04/20 02:08:54;;;;;;;6.10;1.53;;;21.20;80.40;;;;;;4976261;28;20203;-93
2021/04/20 02:11:26;;;;;;;9.53;1.90;;;21.00;82.20;;;;;;4976124;28;20203;-93
2021/04/20 02:14:00;;;;;;;8.97;1.90;;;20.80;82.10;;;;;;4977680;28;20245;-92
2021/04/20 02:16:31;;;;;;;5.43;2.10;;;20.70;82.30;;;;;;4977360;28;20234;-92
2021/04/20 02:19:06;;;;;;;8.80;1.97;;;20.60;83.50;;;;;;4977208;28;20203;-93
2021/04/20 02:21:37;;;;;;;7.67;2.23;;;20.50;83.30;;;;;;4976741;28;20213;-93
2021/04/20 02:24:08;;;;;;;7.30;1.97;;;20.40;84.40;;;;;;4980270;28;20211;-93
2021/04/20 02:26:41;;;;;;;3.00;1.97;;;20.30;83.70;;;;;;4996131;28;20238;-92
2021/04/20 02:29:12;;;;;;;4.90;1.80;;;20.20;87.30;;;;;;4995539;28;20205;-92
2021/04/20 02:31:44;;;;;;;5.43;2.00;;;20.00;85.90;;;;;;4988629;28;20199;-93
2021/04/20 02:34:14;;;;;;;7.47;1.90;;;19.90;87.50;;;;;;4980726;28;20253;-92
2021/04/20 02:36:45;;;;;;;4.53;2.00;;;19.80;87.40;;;;;;4977334;28;20218;-92
2021/04/20 02:39:16;;;;;;;7.93;2.30;;;19.70;89.30;;;;;;4993999;28;20267;-91
2021/04/20 02:41:49;;;;;;;4.73;2.67;;;19.60;87.20;;;;;;4999044;28;20218;-92
2021/04/20 02:44:20;;;;;;;4.30;2.07;;;19.50;89.00;;;;;;4999801;28;20206;-93
2021/04/20 02:46:52;;;;;;;5.03;2.10;;;19.30;90.30;;;;;;4999510;28;20690;-92
2021/04/20 02:49:23;;;;;;;4.73;1.80;;;19.20;89.50;;;;;;4999165;28;20210;-92
2021/04/20 02:52:12;;;;;;;6.50;2.13;;;19.00;90.50;;;;;;4997630;28;20205;-92
2021/04/20 02:54:43;;;;;;;7.73;1.90;;;18.90;88.80;;;;;;5000210;28;20562;-92
2021/04/20 02:57:17;;;;;;;7.80;2.23;;;18.90;90.50;;;;;;4998240;28;20735;-91
2021/04/20 02:59:48;;;;;;;5.37;2.33;;;18.70;91.10;;;;;;5001063;28;20213;-93
2021/04/20 03:02:19;;;;;;;5.33;1.70;;;18.60;91.30;;;;;;4999291;28;20551;-93
2021/04/20 03:04:53;;;;;;;7.13;2.10;;;18.40;90.90;;;;;;5002755;28;20306;-92
2021/04/20 03:07:25;;;;;;;7.53;2.30;;;18.30;90.50;;;;;;4999567;28;20325;-91
2021/04/20 03:09:57;;;;;;;5.53;1.80;;;18.20;90.60;;;;;;5002220;28;20649;-93
2021/04/20 03:12:30;;;;;;;8.13;2.40;;;18.10;90.90;;;;;;4999832;28;20362;-93
2021/04/20 03:15:04;;;;;;;5.80;2.20;;;17.90;91.60;;;;;;5000025;28;20226;-93
2021/04/20 03:17:35;;;;;;;4.23;1.77;;;17.80;92.30;;;;;;4999448;28;20210;-93
2021/04/20 03:20:08;;;;;;;4.57;2.00;;;17.70;90.40;;;;;;4999585;28;20206;-93
2021/04/20 03:22:40;;;;;;;5.50;2.07;;;17.60;91.70;;;;;;5000573;28;20241;-92
2021/04/20 03:25:19;;;;;;;6.83;1.80;;;17.50;91.90;;;;;;4999046;28;20601;-93
2021/04/20 03:27:53;;;;;;;6.10;1.73;;;17.40;92.30;;;;;;4998677;28;20230;-93
2021/04/20 03:30:27;;;;;;;5.43;1.70;;;17.30;92.00;;;;;;4993697;28;20641;-93
2021/04/20 03:33:15;;;;;;;4.70;1.77;;;17.30;91.90;;;;;;4978790;28;20226;-93
2021/04/20 03:35:54;;;;;;;9.03;1.93;;;17.20;92.40;;;;;;4979486;28;20211;-93
2021/04/20 03:38:34;;;;;;;6.67;2.47;;;17.20;92.40;;;;;;4979038;28;20207;-92
2021/04/20 03:41:11;;;;;;;3.17;1.83;;;17.10;92.80;;;;;;4979697;28;20217;-92
2021/04/20 03:43:46;;;;;;;5.17;1.80;;;17.00;93.00;;;;;;4978855;28;20246;-92
2021/04/20 03:46:20;;;;;;;4.33;2.13;;;16.90;92.60;;;;;;4979182;28;20668;-92
2021/04/20 03:48:57;;;;;;;5.80;2.10;;;16.80;92.90;;;;;;4979482;28;20206;-92
2021/04/20 03:51:29;;;;;;;6.63;2.37;;;16.70;92.90;;;;;;4978643;28;20207;-92
2021/04/20 03:54:03;;;;;;;8.33;2.10;;;16.60;93.10;;;;;;4980413;28;20211;-92
2021/04/20 03:56:34;;;;;;;4.20;1.87;;;16.50;93.30;;;;;;4984462;28;20206;-91
2021/04/20 03:59:09;;;;;;;2.87;1.60;;;16.40;93.70;;;;;;4980880;28;20294;-92
2021/04/20 04:01:42;;;;;;;3.87;1.97;;;16.30;93.70;;;;;;4980869;28;20210;-91
2021/04/20 04:04:16;;;;;;;5.10;2.03;;;16.20;94.10;;;;;;4980273;28;20215;-91
2021/04/20 04:06:47;;;;;;;6.00;2.00;;;16.20;94.70;;;;;;4989551;28;20234;-91
2021/04/20 04:09:20;;;;;;;4.33;2.17;;;16.10;94.80;;;;;;4999595;28;20214;-93
2021/04/20 04:11:55;;;;;;;4.97;2.10;;;16.00;94.80;;;;;;4999220;28;20199;-93
2021/04/20 04:14:30;;;;;;;10.77;2.27;;;16.00;94.90;;;;;;4998514;28;20230;-91
2021/04/20 04:17:06;;;;;;;6.40;2.70;;;15.90;95.10;;;;;;4992599;28;20202;-93
2021/04/20 04:19:39;;;;;;;3.97;2.00;;;15.80;95.50;;;;;;4989380;28;20210;-92
2021/04/20 04:22:15;;;;;;;3.40;2.23;;;15.70;95.70;;;;;;4983058;28;20206;-92
2021/04/20 04:24:50;;;;;;;2.70;2.27;;;15.60;95.80;;;;;;4983268;28;20722;-93
2021/04/20 04:27:24;;;;;;;7.10;2.60;;;15.50;95.70;;;;;;4980839;28;20230;-93
2021/04/20 04:30:01;;;;;;;3.20;2.30;;;15.50;95.80;;;;;;4978872;28;20211;-92
2021/04/20 04:32:33;;;;;;;4.10;2.30;;;15.40;96.10;;;;;;4982454;28;20206;-93
2021/04/20 04:35:06;;;;;;;3.43;1.97;;;15.40;96.10;;;;;;4974347;28;20574;-93
2021/04/20 04:37:37;;;;;;;6.83;2.07;;;15.40;96.20;;;;;;4960161;28;20219;-92
2021/04/20 04:40:10;;;;;;;5.57;2.07;;;15.30;96.20;;;;;;4999233;28;20235;-92
2021/04/20 04:42:41;;;;;;;8.30;2.00;;;15.30;96.10;;;;;;4998087;28;20206;-91
2021/04/20 04:45:15;;;;;;;5.50;1.93;;;15.30;96.40;;;;;;4998159;28;20202;-92
2021/04/20 04:47:46;;;;;;;4.40;2.20;;;15.20;96.70;;;;;;4998841;28;20668;-91
2021/04/20 04:50:18;;;;;;;3.70;2.03;;;15.10;96.80;;;;;;5002234;28;20577;-93
2021/04/20 04:52:49;;;;;;;5.47;1.97;;;15.10;97.40;;;;;;4986965;28;20211;-93
2021/04/20 04:55:20;;;;;;;3.60;1.90;;;15.00;97.30;;;;;;4991752;28;20195;-91
2021/04/20 04:57:52;;;;;;;5.33;2.00;;;14.90;97.60;;;;;;4995855;28;20202;-91
2021/04/20 05:00:26;;;;;;;2.87;2.00;;;14.90;97.60;;;;;;4996182;28;20195;-90
2021/04/20 05:03:01;;;;;;;5.50;1.90;;;14.90;98.00;;;;;;4982406;28;20302;-90
2021/04/20 05:05:33;;;;;;;2.77;1.90;;;14.90;98.20;;;;;;4984075;28;20289;-91
2021/04/20 05:08:04;;;;;;;6.10;1.70;;;14.90;98.70;;;;;;4981884;28;20235;-92
2021/04/20 05:10:35;;;;;;;4.40;2.07;;;14.80;98.60;;;;;;4978796;28;20363;-93
2021/04/20 05:13:08;;;;;;;3.90;1.70;;;14.80;99.40;;;;;;4977578;28;20234;-93
2021/04/20 05:15:41;;;;;;;3.20;1.83;;;14.70;99.60;;;;;;4978423;28;20242;-93
2021/04/20 05:18:11;;;;;;;4.20;2.00;;;14.60;99.90;;;;;;4979199;28;20269;-93
2021/04/20 05:20:44;;;;;;;5.97;2.03;;;14.60;99.90;;;;;;4979907;28;20211;-92
2021/04/20 05:23:17;;;;;;;9.17;2.27;;;14.50;99.90;;;;;;4981008;28;20203;-92
2021/04/20 05:25:48;;;;;;;6.97;2.00;;;14.50;99.90;;;;;;4980987;28;20552;-92
2021/04/20 05:28:21;;;;;;;4.80;2.00;;;14.50;99.90;;;;;;4977388;28;20203;-93
2021/04/20 05:30:56;;;;;;;5.07;2.03;;;14.40;99.90;;;;;;4978308;28;20207;-93
2021/04/20 05:33:27;;;;;;;5.00;1.90;;;14.30;99.90;;;;;;4978268;28;20257;-93
2021/04/20 05:36:07;;;;;;;2.93;2.17;;;14.30;99.90;;;;;;4976969;28;20277;-92
2021/04/20 05:38:37;;;;;;;5.73;1.77;;;14.30;99.90;;;;;;4976921;28;20342;-92
2021/04/20 05:41:09;;;;;;;6.53;2.00;;;14.20;99.90;;;;;;4977376;28;20289;-92
2021/04/20 05:43:39;;;;;;;5.77;1.97;;;14.20;99.90;;;;;;4978275;28;20237;-92
2021/04/20 05:46:12;;;;;;;2.70;1.70;;;14.10;99.90;;;;;;4979656;28;20234;-91
2021/04/20 05:48:45;;;;;;;4.00;1.83;;;14.10;99.90;;;;;;4981890;28;20206;-92
2021/04/20 05:51:17;;;;;;;8.27;1.97;;;14.00;99.90;;;;;;4975985;28;20278;-92
2021/04/20 05:53:49;;;;;;;4.00;1.90;;;13.90;99.90;;;;;;4979837;28;20742;-92
2021/04/20 05:56:22;;;;;;;4.30;1.90;;;13.80;99.90;;;;;;4976480;28;20695;-91
2021/04/20 05:58:54;;;;;;;5.13;2.10;;;13.90;99.90;;;;;;4976599;28;20723;-92
2021/04/20 06:01:28;;;;;;;4.23;2.03;;;13.80;99.90;;;;;;4976102;28;20211;-92
2021/04/20 06:04:08;;;;;;;4.07;2.07;;;13.80;99.90;;;;;;4975654;28;20656;-92
2021/04/20 06:06:42;;;;;;;5.33;2.00;;;13.70;99.90;;;;;;4975868;28;20766;-92
2021/04/20 06:09:13;;;;;;;4.00;2.00;;;13.80;99.90;;;;;;4979190;28;20219;-92
2021/04/20 06:11:43;;;;;;;3.13;2.03;;;13.70;99.90;;;;;;4977587;28;20262;-92
2021/04/20 06:14:15;;;;;;;7.77;1.90;;;13.60;99.90;;;;;;4977722;28;20241;-92
2021/04/20 06:16:46;;;;;;;3.97;1.90;;;13.60;99.90;;;;;;4979947;28;20684;-93
2021/04/20 06:19:16;;;;;;;5.63;1.90;;;13.60;99.90;;;;;;4975943;28;20298;-92
2021/04/20 06:21:47;;;;;;;4.40;1.80;;;13.50;99.90;;;;;;4976455;28;20207;-93
2021/04/20 06:24:18;;;;;;;3.67;2.00;;;13.50;99.90;;;;;;4978434;28;20277;-93
2021/04/20 06:26:49;;;;;;;5.47;2.40;;;13.40;99.90;;;;;;4979408;28;20258;-92
2021/04/20 06:29:19;;;;;;;3.30;1.90;;;13.40;99.90;;;;;;4980586;28;20232;-92
2021/04/20 06:31:52;;;;;;;3.07;2.10;;;13.30;99.90;;;;;;4979869;28;20210;-92
2021/04/20 06:34:22;;;;;;;4.23;2.10;;;13.30;99.90;;;;;;4980090;28;20282;-92
2021/04/20 06:36:53;;;;;;;3.97;2.63;;;13.30;99.90;;;;;;4986557;28;20203;-91
2021/04/20 06:39:24;;;;;;;3.47;1.80;;;13.20;99.90;;;;;;4985651;28;20215;-91
2021/04/20 06:41:55;;;;;;;4.67;1.80;;;13.20;99.90;;;;;;4985178;28;20214;-91
2021/04/20 06:44:33;;;;;;;2.60;1.70;;;13.20;99.90;;;;;;4981909;28;20219;-91
2021/04/20 06:47:16;;;;;;;12.63;2.37;;;13.10;99.90;;;;;;4981628;28;20257;-92
2021/04/20 06:49:52;;;;;;;3.23;1.73;;;13.00;99.90;;;;;;4979301;28;20290;-92
2021/04/20 06:52:29;;;;;;;4.53;2.10;;;13.00;99.90;;;;;;4978619;28;20218;-92
2021/04/20 06:55:12;;;;;;;7.13;2.47;;;12.90;99.90;;;;;;4979013;28;20218;-92
2021/04/20 06:57:49;;;;;;;4.07;2.00;;;12.90;99.90;;;;;;4978489;28;20562;-90
2021/04/20 07:00:21;;;;;;;4.57;1.90;;;12.90;99.90;;;;;;4977573;28;20238;-89
2021/04/20 07:03:01;;;;;;;4.30;2.13;;;12.90;99.90;;;;;;4977061;28;20332;-90
2021/04/20 07:05:37;;;;;;;3.27;2.10;;;12.80;99.90;;;;;;4976732;28;20210;-91
2021/04/20 07:08:17;;;;;;;3.77;2.33;;;12.80;99.90;;;;;;4960170;28;20312;-92
2021/04/20 07:10:49;;;;;;;5.77;1.90;;;12.70;99.90;;;;;;4976651;28;20250;-91
2021/04/20 07:13:22;;;;;;;2.93;2.03;;;12.70;99.90;;;;;;4981958;28;20656;-92
2021/04/20 07:15:57;;;;;;;3.93;2.60;;;12.60;99.90;;;;;;4981049;28;20226;-93
2021/04/20 07:19:13;;;;;;;6.27;2.00;;;12.60;99.90;;;;;;4978341;28;20214;-93
2021/04/20 07:22:08;;;;;;;4.00;2.17;;;12.50;99.90;;;;;;4960826;28;20215;-91
2021/04/20 07:24:58;;;;;;;4.53;2.50;;;12.50;99.90;;;;;;4975666;28;20214;-93
2021/04/20 07:27:41;;;;;;;4.30;2.17;;;12.40;99.90;;;;;;4982079;28;20216;-93
2021/04/20 07:30:18;;;;;;;4.00;2.17;;;12.40;99.90;;;;;;4997991;28;20211;-92
2021/04/20 07:33:03;;;;;;;5.47;2.40;;;12.30;99.90;;;;;;4982588;28;20298;-92
2021/04/20 07:35:41;;;;;;;5.50;1.83;;;12.30;99.90;;;;;;4982453;28;20261;-93
2021/04/20 07:38:22;;;;;;;7.03;2.20;;;12.20;99.90;;;;;;4980051;28;20269;-91
2021/04/20 07:41:07;;;;;;;3.77;2.03;;;12.10;99.90;;;;;;4979559;28;20202;-92
2021/04/20 07:43:51;;;;;;;4.87;2.40;;;12.10;99.90;;;;;;4978928;28;20616;-92
2021/04/20 07:46:28;;;;;;;2.63;2.00;;;12.00;99.90;;;;;;4979372;28;20235;-91
2021/04/20 07:49:05;;;;;;;3.63;2.10;;;12.00;99.90;;;;;;4979075;28;20286;-91
2021/04/20 07:51:43;;;;;;;6.57;2.43;;;11.90;99.90;;;;;;4978530;28;20257;-92
2021/04/20 07:54:19;;;;;;;2.43;2.10;;;11.90;99.90;;;;;;4978920;28;20207;-92
2021/04/20 07:56:56;;;;;;;8.10;2.47;;;11.80;99.90;;;;;;4979039;28;20203;-92
2021/04/20 07:59:35;;;;;;;5.40;2.00;;;11.70;99.90;;;;;;4978429;28;20307;-91
2021/04/20 08:02:22;;;;;;;8.13;2.40;;;11.70;99.90;;;;;;4978969;28;20214;-92
2021/04/20 08:05:01;;;;;;;3.50;1.97;;;11.60;99.90;;;;;;4979099;28;20211;-92
2021/04/20 08:07:43;;;;;;;2.60;2.10;;;11.70;99.90;;;;;;4978954;28;20665;-92
2021/04/20 08:10:15;;;;;;;4.40;2.17;;;11.60;99.90;;;;;;4978861;28;20207;-92
2021/04/20 08:12:53;;;;;;;3.57;2.00;;;11.60;99.90;;;;;;4981084;28;20219;-91
2021/04/20 08:15:31;;;;;;;2.97;1.90;;;11.60;99.90;;;;;;4980539;28;20210;-92
2021/04/20 08:18:08;;;;;;;2.27;1.90;;;11.50;99.90;;;;;;4981962;28;20211;-91
2021/04/20 08:20:40;;;;;;;4.17;2.00;;;11.40;99.90;;;;;;4979851;28;20226;-92
2021/04/20 08:23:13;;;;;;;3.27;2.10;;;11.40;99.90;;;;;;4979943;28;20222;-92
2021/04/20 08:25:46;;;;;;;2.10;1.83;;;11.30;99.90;;;;;;4980312;28;20211;-92
2021/04/20 08:28:26;;;;;;;4.03;1.90;;;11.30;99.90;;;;;;4972140;28;20230;-90
2021/04/20 08:31:03;;;;;;;2.30;2.10;;;11.30;99.90;;;;;;4972917;28;20211;-90
2021/04/20 08:33:38;;;;;;;4.03;1.90;;;11.20;99.90;;;;;;4974635;29;20203;-91
2021/04/20 08:36:19;;;;;;;3.57;1.77;;;11.20;99.90;;;;;;4970580;29;20215;-91
2021/04/20 08:39:03;;;;;;;3.60;2.10;;;11.10;99.90;;;;;;4966909;28;20207;-91
2021/04/20 08:41:40;;;;;;;3.97;2.27;;;11.20;99.90;;;;;;4967840;28;20211;-91
2021/04/20 08:44:22;;;;;;;6.27;2.50;;;11.10;99.90;;;;;;4965307;28;20212;-91
2021/04/20 08:47:00;;;;;;;3.37;2.03;;;11.10;99.90;;;;;;4962027;29;20278;-91
2021/04/20 08:49:44;;;;;;;2.33;2.07;;;11.00;99.90;;;;;;4959761;29;20203;-92
2021/04/20 08:52:45;;;;;;;4.90;2.20;;;11.00;99.90;;;;;;4959244;29;20211;-91
2021/04/20 08:55:34;;;;;;;4.50;2.17;;;10.90;99.90;;;;;;4959289;29;20208;-91
2021/04/20 08:58:37;;;;;;;5.50;2.10;;;10.90;99.90;;;;;;4959423;28;20207;-91
2021/04/20 09:01:21;;;;;;;5.80;2.20;;;10.90;99.90;;;;;;4959905;28;20262;-91
2021/04/20 09:04:03;;;;;;;5.03;2.23;;;10.90;99.90;;;;;;4958601;28;20207;-90
2021/04/20 09:06:40;;;;;;;3.30;2.00;;;10.80;99.90;;;;;;4959042;28;20247;-92
2021/04/20 09:09:16;;;;;;;4.17;2.10;;;10.80;99.90;;;;;;4959273;28;20219;-91
2021/04/20 09:11:56;;;;;;;5.90;2.17;;;10.70;99.90;;;;;;4958216;29;20741;-91
2021/04/20 09:14:30;;;;;;;7.10;2.40;;;10.60;99.90;;;;;;4958397;28;20233;-92
2021/04/20 09:17:03;;;;;;;4.20;2.00;;;10.50;99.90;;;;;;4959399;29;20234;-91
2021/04/20 09:19:37;;;;;;;5.20;1.90;;;10.60;99.90;;;;;;4957320;29;20204;-91
2021/04/20 09:22:18;;;;;;;6.13;2.20;;;10.50;99.90;;;;;;4957976;28;20219;-91
2021/04/20 09:24:57;;;;;;;2.57;1.83;;;10.50;99.90;;;;;;4957708;29;20254;-91
2021/04/20 09:27:35;;;;;;;3.00;2.30;;;10.50;99.90;;;;;;4960665;28;20282;-91
2021/04/20 09:30:13;;;;;;;5.37;1.97;;;10.50;99.90;;;;;;4976756;28;20605;-91
2021/04/20 09:32:49;;;;;;;4.63;2.13;;;10.40;99.90;;;;;;4978138;28;20550;-92
2021/04/20 09:35:19;;;;;;;3.40;2.27;;;10.40;99.90;;;;;;4979097;28;20237;-93
2021/04/20 09:37:52;;;;;;;2.80;1.90;;;10.30;99.90;;;;;;4982041;28;20265;-91
2021/04/20 09:40:25;;;;;;;4.00;1.87;;;10.30;99.90;;;;;;4992382;28;20211;-91
2021/04/20 09:43:05;;;;;;;2.80;1.93;;;10.20;99.90;;;;;;4985058;28;20207;-91
2021/04/20 09:45:38;;;;;;;6.07;1.90;;;10.20;99.90;;;;;;4978751;28;20223;-91
2021/04/20 09:48:20;;;;;;;3.63;2.10;;;10.10;99.90;;;;;;4980318;28;21047;-91
2021/04/20 09:51:03;;;;;;;3.20;2.00;;;10.10;99.90;;;;;;4980098;28;20215;-91
2021/04/20 09:53:43;;;;;;;3.57;2.10;;;10.10;99.90;;;;;;4992249;28;20207;-91
2021/04/20 09:56:22;;;;;;;3.60;1.90;;;10.00;99.90;;;;;;4994224;28;20206;-91
2021/04/20 09:58:54;;;;;;;2.73;2.00;;;10.00;99.90;;;;;;4990194;28;20199;-91
2021/04/20 10:01:39;;;;;;;3.30;2.10;;;10.00;99.90;;;;;;4981763;28;20206;-91
2021/04/20 10:04:10;;;;;;;4.57;2.20;;;9.90;99.90;;;;;;4982991;28;20763;-90
2021/04/20 10:07:26;;;;;;;6.10;2.10;;;9.90;99.90;;;;;;4981497;28;20222;-91
2021/04/20 10:10:05;;;;;;;3.60;1.93;;;9.90;99.90;;;;;;4945663;29;20239;-91
2021/04/20 10:12:56;;;;;;;4.37;2.00;;;9.80;99.90;;;;;;4978696;28;20203;-91
2021/04/20 10:15:36;;;;;;;4.67;2.10;;;9.70;99.90;;;;;;4979778;28;20684;-92
2021/04/20 10:18:16;;;;;;;3.30;2.80;;;9.80;99.90;;;;;;4972323;28;20740;-91
2021/04/20 10:20:51;;;;;;;5.30;2.63;;;9.80;99.90;;;;;;4975685;28;20206;-91
2021/04/20 10:23:33;;;;;;;3.73;2.30;;;9.70;99.90;;;;;;4980061;28;20199;-92
2021/04/20 10:26:13;;;;;;;6.47;2.87;;;9.60;99.90;;;;;;4981077;28;20245;-92
2021/04/20 10:28:47;;;;;;;4.93;2.03;;;9.60;99.90;;;;;;4980668;28;20289;-93
2021/04/20 10:31:23;;;;;;;2.20;2.00;;;9.50;99.90;;;;;;4982687;28;20217;-92
2021/04/20 10:33:54;;;;;;;3.93;2.23;;;9.50;99.90;;;;;;4981577;28;20238;-93
2021/04/20 10:36:28;;;;;;;6.40;2.30;;;9.40;99.90;;;;;;4981324;28;20254;-93
2021/04/20 10:39:01;;;;;;;3.40;2.27;;;9.40;99.90;;;;;;4977266;28;20281;-91
2021/04/20 10:41:33;;;;;;;5.40;2.33;;;9.40;99.90;;;;;;4977491;28;20291;-93
2021/04/20 10:44:11;;;;;;;4.37;2.20;;;9.40;99.90;;;;;;4977233;28;20215;-92
2021/04/20 10:46:46;;;;;;;3.27;1.80;;;9.40;99.90;;;;;;4978106;28;20226;-91
2021/04/20 10:49:18;;;;;;;4.23;2.53;;;9.40;99.90;;;;;;4976623;28;20210;-92
2021/04/20 10:51:54;;;;;;;4.20;2.50;;;9.40;99.90;;;;;;4975589;28;20270;-91
2021/04/20 10:54:29;;;;;;;3.47;2.27;;;9.40;99.90;;;;;;4978386;28;20236;-91
2021/04/20 10:57:00;;;;;;;4.00;2.10;;;9.40;99.90;;;;;;4979081;28;20750;-92
2021/04/20 10:59:33;;;;;;;4.57;2.17;;;9.40;99.90;;;;;;4980511;28;20679;-90
2021/04/20 11:02:08;;;;;;;5.53;2.00;;;9.30;99.90;;;;;;4981134;28;20653;-91
2021/04/20 11:04:39;;;;;;;4.73;2.23;;;9.30;99.90;;;;;;4980577;28;20698;-90
2021/04/20 11:07:23;;;;;;;3.40;2.00;;;9.30;99.90;;;;;;4980551;28;20256;-90
2021/04/20 11:09:59;;;;;;;3.73;1.93;;;9.30;99.90;;;;;;4980844;28;20202;-91
2021/04/20 11:12:30;;;;;;;3.70;2.40;;;9.30;99.90;;;;;;4979823;28;20238;-91
2021/04/20 11:15:01;;;;;;;3.00;2.27;;;9.30;99.90;;;;;;4979468;28;20222;-92
2021/04/20 11:17:46;;;;;;;4.73;2.30;;;9.20;99.90;;;;;;4981536;28;20207;-91
2021/04/20 11:20:20;;;;;;;2.67;2.10;;;9.10;99.90;;;;;;4980600;28;20218;-91
2021/04/20 11:22:52;;;;;;;3.07;2.20;;;9.10;99.90;;;;;;4980933;28;20623;-91
2021/04/20 11:25:28;;;;;;;5.10;2.17;;;9.10;99.90;;;;;;4980141;28;20277;-91
2021/04/20 11:28:01;;;;;;;4.43;2.27;;;9.10;99.90;;;;;;4980177;28;20242;-91
2021/04/20 11:30:34;;;;;;;4.67;2.77;;;9.10;99.90;;;;;;4980093;28;20234;-91
2021/04/20 11:33:12;;;;;;;5.37;2.10;;;9.10;99.90;;;;;;4982753;28;20261;-90
2021/04/20 11:35:48;;;;;;;4.47;2.20;;;9.10;99.90;;;;;;4983888;28;20203;-91
2021/04/20 11:38:20;;;;;;;2.87;2.00;;;9.00;99.90;;;;;;4984413;28;20242;-91
2021/04/20 11:41:01;;;;;;;6.77;2.13;;;9.00;99.90;;;;;;4987475;28;20217;-91
2021/04/20 11:43:33;;;;;;;3.17;2.17;;;9.00;99.90;;;;;;4986230;28;20194;-91
2021/04/20 11:46:05;;;;;;;5.43;1.97;;;9.00;99.90;;;;;;4985294;28;20211;-90
2021/04/20 11:48:37;;;;;;;3.83;2.40;;;8.90;99.90;;;;;;4982777;28;20308;-91
2021/04/20 11:51:08;;;;;;;3.17;2.03;;;8.90;99.90;;;;;;4984438;28;20215;-90
2021/04/20 11:53:42;;;;;;;4.27;2.67;;;8.90;99.90;;;;;;4982028;28;20210;-90
2021/04/20 11:56:13;;;;;;;4.23;2.27;;;8.80;99.90;;;;;;4980109;28;20246;-90
2021/04/20 11:58:45;;;;;;;3.73;2.37;;;8.80;99.90;;;;;;4978647;28;20227;-90
2021/04/20 12:01:18;;;;;;;4.93;2.10;;;8.80;99.90;;;;;;4980081;28;20234;-91
2021/04/20 12:03:55;;;;;;;4.93;3.07;;;8.80;99.90;;;;;;4982793;28;20233;-91
2021/04/20 12:06:27;;;;;;;5.43;2.30;;;8.80;99.90;;;;;;4982947;28;20261;-90
2021/04/20 12:08:59;;;;;;;5.60;2.40;;;8.60;99.90;;;;;;4982610;28;20238;-91
2021/04/20 12:11:32;;;;;;;5.03;2.70;;;8.60;99.90;;;;;;4985346;28;20213;-88
2021/04/20 12:14:03;;;;;;;3.60;2.50;;;8.60;99.90;;;;;;4988130;28;20206;-90
2021/04/20 12:16:35;;;;;;;6.00;2.50;;;8.50;99.90;;;;;;4979717;29;20537;-91
2021/04/20 12:19:10;;;;;;;2.97;2.20;;;8.50;99.90;;;;;;4981876;28;20278;-92
2021/04/20 12:21:45;;;;;;;5.43;2.40;;;8.50;99.90;;;;;;4994280;28;20218;-89
2021/04/20 12:24:19;;;;;;;7.10;2.50;;;8.50;99.90;;;;;;4998666;28;20224;-91
2021/04/20 12:26:53;;;;;;;2.43;2.20;;;8.50;99.90;;;;;;4984175;28;20345;-92
2021/04/20 12:29:26;;;;;;;3.00;2.30;;;8.40;99.90;;;;;;4985286;28;20215;-92
2021/04/20 12:31:57;;;;;;;2.47;2.17;;;8.40;99.90;;;;;;4991027;28;20211;-92
2021/04/20 12:34:32;;;;;;;3.73;2.37;;;8.30;99.90;;;;;;4991236;28;20210;-91
2021/04/20 12:37:05;;;;;;;3.13;2.10;;;8.30;99.90;;;;;;4990870;28;20248;-92
2021/04/20 12:39:38;;;;;;;5.17;2.53;;;8.20;99.90;;;;;;4987718;28;20214;-92
2021/04/20 12:42:10;;;;;;;4.43;2.30;;;8.20;99.90;;;;;;4986094;28;20217;-92
2021/04/20 12:44:42;;;;;;;7.93;2.67;;;8.20;99.90;;;;;;4989168;28;20240;-91
2021/04/20 12:47:15;;;;;;;4.93;2.10;;;8.20;99.90;;;;;;4988589;28;20258;-91
2021/04/20 12:49:49;;;;;;;4.43;2.23;;;8.20;99.90;;;;;;4986842;28;20213;-91
2021/04/20 12:52:24;;;;;;;4.40;2.60;;;8.20;99.90;;;;;;4985708;28;20210;-91
2021/04/20 12:55:00;;;;;;;3.27;2.30;;;8.20;99.90;;;;;;4988226;28;20202;-91
2021/04/20 12:57:38;;;;;;;4.40;2.27;;;8.20;99.90;;;;;;4984758;28;20211;-91
2021/04/20 13:00:13;;;;;;;3.03;2.30;;;8.20;99.90;;;;;;4986645;28;20270;-91
2021/04/20 13:02:47;;;;;;;2.67;2.10;;;8.20;99.90;;;;;;4987515;28;20230;-92
2021/04/20 13:05:21;;;;;;;5.60;2.33;;;8.10;99.90;;;;;;4990049;28;20212;-91
2021/04/20 13:07:52;;;;;;;5.47;2.80;;;8.10;99.90;;;;;;4981932;28;20757;-91
2021/04/20 13:10:24;;;;;;;3.63;2.20;;;8.20;99.90;;;;;;4979857;28;20636;-90
2021/04/20 13:12:56;;;;;;;4.27;2.27;;;8.10;99.90;;;;;;4982478;28;20218;-90
2021/04/20 13:15:28;;;;;;;2.20;2.00;;;8.00;99.90;;;;;;4981031;28;20214;-92
2021/04/20 13:18:01;;;;;;;4.10;2.00;;;8.00;99.90;;;;;;4978836;28;20679;-92
2021/04/20 13:20:36;;;;;;;7.33;2.33;;;8.00;99.90;;;;;;4978433;28;20238;-92
2021/04/20 13:23:28;;;;;;;3.53;2.33;;;8.00;99.90;;;;;;4977572;28;20202;-91
2021/04/20 13:26:02;;;;;;;2.33;1.97;;;8.00;99.90;;;;;;4977595;28;20620;-91
2021/04/20 13:28:36;;;;;;;4.10;2.07;;;8.00;99.90;;;;;;4976990;28;20328;-91
2021/04/20 13:31:13;;;;;;;6.50;2.40;;;8.00;99.90;;;;;;4979405;28;20206;-91